Rush Valley, Utah
Current Conditions -  °F | °C
As of 3:53 PM on Tuesday 27 Jan 2015 (Local Time) from KSLC Reporting Station
Broken Clouds Broken Clouds  
Wind Chill: 56°   Ceiling: 9000
Heat Index: 56°   Visibility: 10mi
Dew Point: 37°   Wind: 0mph
Humidity: 49%   Direction: NA
Pressure: 30.14"   Gusts: NA
Location:  40.36°N, 112.45°W
Report Text: KSLC 272253Z 00000KT 10SM FEW060 SCT070 BKN090 13/03 A3014 RMK AO2 SLP202 T01330028
Loading
Personal Weather Stations






























Interactive Weather Map New forecast layout! Learn more

10-Day Weather Forecast

Advertisements
Track Severe Weather on mobile